Time;durP1;ratioP1;P1;durP2;ratioP2;P2;SDS_P1;SDS_P2;PMS_P1;PMS_P2;Temp;Humidity;BMP_temperature;BMP_pressure;BME280_temperature;BME280_humidity;BME280_pressure;Samples;Min_cycle;Max_cycle;Signal;HPM_P1;HPM_P2
2022/10/22 00:00:55;;;;;;;17.77;2.90;;;32.80;40.30;;;;;;5068845;28;20124;-69
2022/10/22 00:03:22;;;;;;;13.30;2.47;;;32.80;40.30;;;;;;5068626;28;20560;-64
2022/10/22 00:05:48;;;;;;;18.27;2.80;;;32.80;37.90;;;;;;5072430;28;20205;-69
2022/10/22 00:08:15;;;;;;;17.35;3.00;;;32.70;39.70;;;;;;5072242;28;20533;-67
2022/10/22 00:10:42;;;;;;;15.93;3.00;;;32.70;38.50;;;;;;5073096;28;20086;-66
2022/10/22 00:13:09;;;;;;;14.82;2.15;;;32.60;38.70;;;;;;5074465;28;20120;-69
2022/10/22 00:15:35;;;;;;;16.92;2.70;;;32.70;37.70;;;;;;5079056;28;20068;-67
2022/10/22 00:18:02;;;;;;;11.90;2.65;;;32.70;39.60;;;;;;5076936;28;20109;-70
2022/10/22 00:20:28;;;;;;;14.18;3.33;;;32.70;38.50;;;;;;5075854;28;20444;-65
2022/10/22 00:22:55;;;;;;;11.05;2.17;;;32.60;38.60;;;;;;5074504;28;20091;-65
2022/10/22 00:25:21;;;;;;;21.55;2.97;;;32.60;40.40;;;;;;5072751;28;20155;-68
2022/10/22 00:27:48;;;;;;;19.83;3.05;;;32.40;40.60;;;;;;5070017;28;20409;-68
2022/10/22 00:30:15;;;;;;;16.77;2.53;;;32.30;39.00;;;;;;5068239;28;20612;-70
2022/10/22 00:32:41;;;;;;;16.63;2.63;;;32.30;40.10;;;;;;5067407;28;20099;-68
2022/10/22 00:35:07;;;;;;;18.95;2.90;;;32.10;41.70;;;;;;5068493;28;20105;-70
2022/10/22 00:37:34;;;;;;;14.65;2.45;;;32.10;40.40;;;;;;5068723;28;20069;-68
2022/10/22 00:40:00;;;;;;;22.65;2.67;;;31.90;38.80;;;;;;5065425;28;20091;-68
2022/10/22 00:42:29;;;;;;;23.00;2.63;;;31.90;40.20;;;;;;5066754;28;20170;-68
2022/10/22 00:45:10;;;;;;;20.50;2.80;;;31.80;41.20;;;;;;5070088;28;20209;-68
2022/10/22 00:47:57;;;;;;;21.60;2.88;;;31.70;40.90;;;;;;5073030;28;20078;-67
2022/10/22 00:50:26;;;;;;;37.10;3.55;;;31.50;41.40;;;;;;5067118;28;20072;-66
2022/10/22 00:52:54;;;;;;;23.67;3.45;;;31.40;41.20;;;;;;5068781;28;20572;-67
2022/10/22 00:55:22;;;;;;;33.25;3.47;;;31.30;42.10;;;;;;5066011;28;20076;-67
2022/10/22 00:57:49;;;;;;;18.30;3.45;;;31.20;42.70;;;;;;5069431;28;20141;-67
2022/10/22 01:00:16;;;;;;;29.23;3.70;;;31.10;42.20;;;;;;5070480;28;20083;-68
2022/10/22 01:02:43;;;;;;;38.33;4.00;;;31.00;42.50;;;;;;5072442;28;20084;-68
2022/10/22 01:05:10;;;;;;;26.75;4.05;;;30.80;42.60;;;;;;5078086;28;20072;-67
2022/10/22 01:08:00;;;;;;;19.00;4.28;;;30.70;43.70;;;;;;5074115;28;20075;-69
2022/10/22 01:11:01;;;;;;;25.20;3.80;;;30.60;43.70;;;;;;5077500;28;20088;-68
2022/10/22 01:14:02;;;;;;;28.55;4.90;;;30.50;44.60;;;;;;5062967;28;20400;-66
2022/10/22 01:16:54;;;;;;;21.92;4.25;;;30.40;43.90;;;;;;5072321;28;20105;-66
2022/10/22 01:19:44;;;;;;;33.97;4.72;;;30.20;44.00;;;;;;5072084;28;20170;-66
2022/10/22 01:22:30;;;;;;;31.58;4.82;;;30.10;44.30;;;;;;5078179;28;20749;-69
2022/10/22 01:25:15;;;;;;;50.22;5.72;;;29.90;44.40;;;;;;5083791;28;20631;-66
2022/10/22 01:27:49;;;;;;;71.18;6.63;;;29.80;44.90;;;;;;5078828;28;20061;-67
2022/10/22 01:30:17;;;;;;;34.10;6.32;;;29.70;46.40;;;;;;5081880;28;20081;-67
2022/10/22 01:32:53;;;;;;;45.85;7.43;;;29.60;46.30;;;;;;5086503;28;20068;-70
2022/10/22 01:35:28;;;;;;;54.55;7.35;;;29.60;45.90;;;;;;5084163;28;20108;-67
2022/10/22 01:38:08;;;;;;;68.15;8.00;;;29.40;46.20;;;;;;5078521;28;20071;-68
2022/10/22 01:40:35;;;;;;;73.05;10.23;;;29.40;45.80;;;;;;5073291;28;20084;-68
2022/10/22 01:43:08;;;;;;;61.45;10.93;;;29.30;46.10;;;;;;5075864;28;20533;-71
2022/10/22 01:45:44;;;;;;;77.13;13.23;;;29.30;45.90;;;;;;5072346;28;20075;-67
2022/10/22 01:49:01;;;;;;;91.25;14.68;;;29.20;45.50;;;;;;5080087;28;20078;-70
2022/10/22 01:52:06;;;;;;;80.28;15.30;;;29.10;45.60;;;;;;5060817;28;20090;-67
2022/10/22 01:55:10;;;;;;;69.10;14.57;;;29.10;46.70;;;;;;5061461;28;20131;-66
2022/10/22 01:57:51;;;;;;;65.03;14.27;;;29.00;46.80;;;;;;5081841;28;20069;-68
2022/10/22 02:00:19;;;;;;;61.72;14.88;;;29.10;47.10;;;;;;5074747;28;20178;-66
2022/10/22 02:02:57;;;;;;;63.13;13.35;;;29.10;47.00;;;;;;5080855;28;20089;-65
2022/10/22 02:05:37;;;;;;;78.00;13.15;;;29.10;47.00;;;;;;5070122;28;20166;-67
2022/10/22 02:08:18;;;;;;;67.45;11.30;;;29.10;47.50;;;;;;5070001;28;20437;-67
2022/10/22 02:10:47;;;;;;;59.30;10.95;;;29.10;46.60;;;;;;5070047;28;20361;-66
2022/10/22 02:13:31;;;;;;;81.90;12.70;;;29.20;46.60;;;;;;5070483;28;20689;-67
2022/10/22 02:15:59;;;;;;;70.13;12.43;;;29.20;46.00;;;;;;5068965;28;20073;-68
2022/10/22 02:18:30;;;;;;;75.85;12.50;;;29.10;45.80;;;;;;5070740;28;20107;-65
2022/10/22 02:20:57;;;;;;;93.43;10.93;;;29.10;45.80;;;;;;5069772;28;20118;-65
2022/10/22 02:23:24;;;;;;;94.13;9.60;;;29.20;45.80;;;;;;5070179;28;20076;-68
2022/10/22 02:25:56;;;;;;;65.68;8.73;;;29.20;45.80;;;;;;5071989;28;20556;-65
2022/10/22 02:28:38;;;;;;;54.35;8.70;;;29.20;46.10;;;;;;5076001;28;20068;-66
2022/10/22 02:31:16;;;;;;;71.47;8.88;;;29.20;45.90;;;;;;5075497;28;20067;-67
2022/10/22 02:33:46;;;;;;;84.75;9.30;;;29.10;46.20;;;;;;5069743;28;20168;-67
2022/10/22 02:36:14;;;;;;;81.97;8.45;;;29.20;46.00;;;;;;5070304;28;20111;-68
2022/10/22 02:38:42;;;;;;;82.03;9.45;;;29.20;45.90;;;;;;5069592;28;20088;-66
2022/10/22 02:41:08;;;;;;;63.13;8.55;;;29.20;46.00;;;;;;5076164;28;20083;-66
2022/10/22 02:43:43;;;;;;;72.75;9.13;;;29.20;45.80;;;;;;5070394;28;20529;-65
2022/10/22 02:46:10;;;;;;;54.63;8.68;;;29.10;45.60;;;;;;5065621;28;20120;-63
2022/10/22 02:48:37;;;;;;;56.85;8.75;;;29.10;46.00;;;;;;5072057;28;20068;-68
2022/10/22 02:51:03;;;;;;;46.65;8.80;;;29.10;46.00;;;;;;5071843;28;20081;-68
2022/10/22 02:53:30;;;;;;;60.97;9.93;;;29.10;46.00;;;;;;5069957;28;20073;-68
2022/10/22 02:55:56;;;;;;;84.18;9.98;;;29.10;46.80;;;;;;5074213;28;20545;-66
2022/10/22 02:58:22;;;;;;;70.13;9.15;;;29.00;46.90;;;;;;5070397;28;20068;-67
2022/10/22 03:00:49;;;;;;;64.05;9.88;;;29.00;46.60;;;;;;5066161;28;20088;-67
2022/10/22 03:03:15;;;;;;;51.55;9.52;;;28.90;46.60;;;;;;5071091;28;20184;-65
2022/10/22 03:05:42;;;;;;;56.38;9.40;;;28.90;47.10;;;;;;5070684;28;20118;-68
2022/10/22 03:08:08;;;;;;;71.20;10.05;;;28.80;46.60;;;;;;5069184;28;20072;-67
2022/10/22 03:10:34;;;;;;;76.53;10.48;;;28.80;46.50;;;;;;5068344;28;20156;-67
2022/10/22 03:13:01;;;;;;;68.68;10.48;;;28.80;47.30;;;;;;5074481;28;20083;-67
2022/10/22 03:15:27;;;;;;;71.43;12.30;;;28.70;47.80;;;;;;5068979;28;20091;-68
2022/10/22 03:17:53;;;;;;;70.28;12.95;;;28.70;48.20;;;;;;5074801;28;20159;-68
2022/10/22 03:20:20;;;;;;;90.13;12.20;;;28.60;47.90;;;;;;5079036;28;20079;-68
2022/10/22 03:22:46;;;;;;;78.55;11.82;;;28.50;48.10;;;;;;5076737;28;20180;-67
2022/10/22 03:25:18;;;;;;;68.43;10.65;;;28.50;49.10;;;;;;5068735;28;20414;-67
2022/10/22 03:27:45;;;;;;;66.25;10.95;;;28.50;49.40;;;;;;5069839;28;20070;-68
2022/10/22 03:30:12;;;;;;;72.65;11.07;;;28.40;49.30;;;;;;5068695;28;20201;-68
2022/10/22 03:32:38;;;;;;;72.22;12.30;;;28.40;49.10;;;;;;5069343;28;20073;-68
2022/10/22 03:35:05;;;;;;;63.70;11.70;;;28.30;48.70;;;;;;5072409;28;20639;-68
2022/10/22 03:37:33;;;;;;;55.75;11.32;;;28.30;48.70;;;;;;5075273;28;20073;-67
2022/10/22 03:40:00;;;;;;;44.20;11.25;;;28.20;48.60;;;;;;5077250;28;20530;-67
2022/10/22 03:42:27;;;;;;;53.65;11.98;;;28.30;49.30;;;;;;5073086;28;20608;-68
2022/10/22 03:44:53;;;;;;;58.58;12.25;;;28.20;48.40;;;;;;5068806;28;20114;-66
2022/10/22 03:47:23;;;;;;;56.25;11.25;;;28.20;48.80;;;;;;5068350;28;20179;-66
2022/10/22 03:49:50;;;;;;;64.32;9.93;;;28.20;48.00;;;;;;5081000;28;20077;-66
2022/10/22 03:52:17;;;;;;;51.42;8.30;;;28.10;48.90;;;;;;5069301;28;20075;-68
2022/10/22 03:54:43;;;;;;;59.88;7.80;;;28.20;48.70;;;;;;5067886;28;20065;-69
2022/10/22 03:57:10;;;;;;;44.67;7.30;;;28.10;49.10;;;;;;5070018;28;20103;-67
2022/10/22 03:59:44;;;;;;;41.08;6.97;;;28.10;49.60;;;;;;5069144;28;20149;-68
2022/10/22 04:02:12;;;;;;;41.00;6.88;;;28.10;50.00;;;;;;5066727;28;20407;-66
2022/10/22 04:04:38;;;;;;;44.17;5.70;;;28.00;50.30;;;;;;5071139;28;20095;-67
2022/10/22 04:07:06;;;;;;;49.53;6.38;;;28.00;50.30;;;;;;5067934;28;20600;-68
2022/10/22 04:09:33;;;;;;;39.20;5.32;;;28.00;50.60;;;;;;5072531;28;20068;-69
2022/10/22 04:12:00;;;;;;;36.80;6.20;;;28.00;50.90;;;;;;5068156;28;20089;-66
2022/10/22 04:14:26;;;;;;;33.47;5.85;;;27.90;51.20;;;;;;5067452;28;20083;-66
2022/10/22 04:16:53;;;;;;;39.67;6.35;;;27.90;51.50;;;;;;5068177;28;20534;-67
2022/10/22 04:19:19;;;;;;;41.97;5.95;;;27.80;52.50;;;;;;5068983;28;20091;-68
2022/10/22 04:21:46;;;;;;;41.33;5.65;;;27.80;52.60;;;;;;5067591;28;20516;-67
2022/10/22 04:24:12;;;;;;;44.20;6.72;;;27.70;53.20;;;;;;5068718;28;20558;-68
2022/10/22 04:26:38;;;;;;;41.70;8.55;;;27.70;53.40;;;;;;5071705;28;20119;-69
2022/10/22 04:29:06;;;;;;;37.42;8.77;;;27.60;53.70;;;;;;5075453;28;20077;-66
2022/10/22 04:31:33;;;;;;;43.55;8.07;;;27.50;54.10;;;;;;5068277;28;20116;-68
2022/10/22 04:34:00;;;;;;;39.78;7.28;;;27.40;54.60;;;;;;5069022;28;20537;-66
2022/10/22 04:36:27;;;;;;;36.08;6.93;;;27.40;55.20;;;;;;5075029;28;20117;-68
2022/10/22 04:38:59;;;;;;;40.05;5.90;;;27.30;55.70;;;;;;5068393;28;20100;-68
2022/10/22 04:41:28;;;;;;;39.28;6.10;;;27.30;56.10;;;;;;5073979;28;20080;-68
2022/10/22 04:43:55;;;;;;;35.85;6.60;;;27.20;56.40;;;;;;5070535;28;20088;-69
2022/10/22 04:46:24;;;;;;;45.17;7.47;;;27.10;56.80;;;;;;5074237;28;20098;-68
2022/10/22 04:48:51;;;;;;;28.17;6.38;;;27.10;57.60;;;;;;5072478;28;20520;-68
2022/10/22 04:51:19;;;;;;;45.60;6.82;;;27.00;57.70;;;;;;5078601;28;20065;-69
2022/10/22 04:53:46;;;;;;;34.15;6.00;;;26.90;57.40;;;;;;5075412;28;20126;-66
2022/10/22 04:56:30;;;;;;;36.65;5.75;;;26.90;57.80;;;;;;5074595;28;20188;-67
2022/10/22 04:58:59;;;;;;;32.15;5.93;;;26.80;59.00;;;;;;5074660;28;20501;-67
2022/10/22 05:01:37;;;;;;;29.85;5.35;;;26.70;60.00;;;;;;5073865;28;20089;-69
2022/10/22 05:04:05;;;;;;;26.80;5.70;;;26.70;60.00;;;;;;5071159;28;20088;-66
2022/10/22 05:06:34;;;;;;;46.08;6.43;;;26.70;59.30;;;;;;5071122;28;20526;-69
2022/10/22 05:09:06;;;;;;;41.80;6.28;;;26.70;60.40;;;;;;5072409;28;20093;-68
2022/10/22 05:11:36;;;;;;;29.10;5.20;;;26.60;60.20;;;;;;5071896;28;20120;-68
2022/10/22 05:14:05;;;;;;;26.80;5.43;;;26.60;62.00;;;;;;5074267;28;20077;-68
2022/10/22 05:16:32;;;;;;;33.03;6.35;;;26.50;62.00;;;;;;5071988;28;20093;-66
2022/10/22 05:19:00;;;;;;;33.70;6.05;;;26.40;62.80;;;;;;5073058;28;20472;-65
2022/10/22 05:21:27;;;;;;;22.00;5.60;;;26.40;61.60;;;;;;5073450;28;20453;-68
2022/10/22 05:23:54;;;;;;;33.55;6.85;;;26.30;62.20;;;;;;5077042;28;20475;-69
2022/10/22 05:26:23;;;;;;;32.67;6.38;;;26.30;62.40;;;;;;5074020;28;20156;-67
2022/10/22 05:28:50;;;;;;;29.85;5.72;;;26.30;63.90;;;;;;5074708;28;20085;-68
2022/10/22 05:31:17;;;;;;;28.90;6.25;;;26.20;63.50;;;;;;5073077;28;20084;-69
2022/10/22 05:33:44;;;;;;;34.08;7.00;;;26.10;63.70;;;;;;5072654;28;20073;-70
2022/10/22 05:36:18;;;;;;;29.55;6.97;;;26.10;63.30;;;;;;5069631;28;20151;-70
2022/10/22 05:38:44;;;;;;;46.78;8.30;;;26.10;64.70;;;;;;5077394;28;20068;-67
2022/10/22 05:41:13;;;;;;;30.35;7.35;;;26.10;63.90;;;;;;5076950;28;20608;-66
2022/10/22 05:43:40;;;;;;;30.40;6.72;;;26.00;63.80;;;;;;5074219;28;20151;-66
2022/10/22 05:46:12;;;;;;;28.20;6.68;;;26.00;63.20;;;;;;5071448;28;20119;-67
2022/10/22 05:48:39;;;;;;;25.65;6.65;;;26.00;64.40;;;;;;5071684;28;20533;-65
2022/10/22 05:51:08;;;;;;;31.02;6.95;;;26.00;64.40;;;;;;5071067;28;20600;-66
2022/10/22 05:53:35;;;;;;;30.38;6.55;;;26.00;65.00;;;;;;5071823;28;20171;-67
2022/10/22 05:56:15;;;;;;;25.50;6.57;;;26.00;64.80;;;;;;5071731;28;20073;-67
2022/10/22 05:58:45;;;;;;;38.60;6.40;;;25.80;64.40;;;;;;5070269;28;20077;-64
2022/10/22 06:01:33;;;;;;;34.15;6.63;;;25.80;65.00;;;;;;5074648;28;20089;-71
2022/10/22 06:04:02;;;;;;;36.10;7.35;;;25.80;65.70;;;;;;5067114;28;20544;-62
2022/10/22 06:06:33;;;;;;;35.92;7.47;;;25.70;66.20;;;;;;5079288;28;20072;-65
2022/10/22 06:09:04;;;;;;;31.73;7.47;;;25.70;66.50;;;;;;5073651;28;20099;-65
2022/10/22 06:11:30;;;;;;;30.13;7.40;;;25.70;66.50;;;;;;5070487;28;20065;-66
2022/10/22 06:13:57;;;;;;;21.48;6.15;;;25.60;67.90;;;;;;5070033;28;20085;-65
2022/10/22 06:16:23;;;;;;;36.20;6.72;;;25.60;68.40;;;;;;5069446;28;20076;-66
2022/10/22 06:18:49;;;;;;;28.13;6.07;;;25.60;68.40;;;;;;5071236;28;20475;-65
2022/10/22 06:21:16;;;;;;;26.77;5.78;;;25.50;68.50;;;;;;5070766;28;20081;-64
2022/10/22 06:23:43;;;;;;;29.33;6.38;;;25.40;67.70;;;;;;5070026;28;20085;-65
2022/10/22 06:26:10;;;;;;;25.98;5.78;;;25.40;68.30;;;;;;5069199;28;20158;-64
2022/10/22 06:28:36;;;;;;;24.25;5.82;;;25.40;68.20;;;;;;5069282;28;20073;-65
2022/10/22 06:31:04;;;;;;;22.25;5.28;;;25.40;69.00;;;;;;5070914;28;20722;-66
2022/10/22 06:33:32;;;;;;;26.85;5.72;;;25.30;69.40;;;;;;5070513;28;20065;-64
2022/10/22 06:36:07;;;;;;;30.88;7.28;;;25.30;70.40;;;;;;5071460;28;20159;-65
2022/10/22 06:38:34;;;;;;;39.58;7.88;;;25.20;70.10;;;;;;5069405;28;20080;-65
2022/10/22 06:41:06;;;;;;;38.33;8.10;;;25.20;70.40;;;;;;5072372;28;20085;-64
2022/10/22 06:43:32;;;;;;;35.58;8.45;;;25.20;69.90;;;;;;5068752;28;20085;-67
2022/10/22 06:46:00;;;;;;;39.38;8.52;;;25.20;70.00;;;;;;5069714;28;20080;-65
2022/10/22 06:48:27;;;;;;;34.35;8.30;;;25.10;69.50;;;;;;5070129;28;20071;-66
2022/10/22 06:50:53;;;;;;;41.83;9.07;;;25.10;70.60;;;;;;5071078;28;20173;-64
2022/10/22 06:53:20;;;;;;;36.15;8.98;;;25.10;71.20;;;;;;5077875;28;20072;-66
2022/10/22 06:55:47;;;;;;;56.55;9.88;;;25.00;71.20;;;;;;5070035;28;20069;-65
2022/10/22 06:58:14;;;;;;;43.45;10.85;;;25.00;70.80;;;;;;5070554;28;20077;-65
2022/10/22 07:00:40;;;;;;;37.83;10.80;;;24.90;70.50;;;;;;5070665;28;20085;-65
2022/10/22 07:03:11;;;;;;;53.50;12.23;;;24.90;71.30;;;;;;5069233;28;20089;-65
2022/10/22 07:05:37;;;;;;;52.63;11.93;;;24.80;71.00;;;;;;5066596;28;20106;-63
2022/10/22 07:08:04;;;;;;;48.75;12.80;;;24.80;71.50;;;;;;5068361;28;20539;-67
2022/10/22 07:10:31;;;;;;;50.03;11.55;;;24.80;71.70;;;;;;5069698;28;20530;-66
2022/10/22 07:12:58;;;;;;;54.75;12.57;;;24.80;71.90;;;;;;5074156;28;20108;-65
2022/10/22 07:15:24;;;;;;;52.75;13.02;;;24.80;72.30;;;;;;5073070;28;20073;-67
2022/10/22 07:17:50;;;;;;;49.88;13.00;;;24.70;72.20;;;;;;5074840;28;20535;-65
2022/10/22 07:20:20;;;;;;;50.97;12.68;;;24.70;72.20;;;;;;5070527;28;20081;-65
2022/10/22 07:22:46;;;;;;;49.83;12.50;;;24.70;72.20;;;;;;5070626;28;20176;-66
2022/10/22 07:25:12;;;;;;;56.83;12.77;;;24.70;71.80;;;;;;5070300;28;20065;-64
2022/10/22 07:27:39;;;;;;;45.10;12.55;;;24.70;72.00;;;;;;5068148;28;20073;-64
2022/10/22 07:30:06;;;;;;;43.42;12.85;;;24.60;72.00;;;;;;5069160;28;20065;-64
2022/10/22 07:32:32;;;;;;;54.08;12.45;;;24.60;72.00;;;;;;5069246;28;20077;-64
2022/10/22 07:34:58;;;;;;;40.25;12.27;;;24.50;71.80;;;;;;5068675;28;20625;-65
2022/10/22 07:37:25;;;;;;;45.30;12.55;;;24.60;72.10;;;;;;5068962;28;20546;-64
2022/10/22 07:39:51;;;;;;;42.55;11.52;;;24.60;72.00;;;;;;5068440;28;20091;-64
2022/10/22 07:42:17;;;;;;;36.78;11.10;;;24.60;72.60;;;;;;5068717;28;20077;-66
2022/10/22 07:44:44;;;;;;;38.42;11.65;;;24.70;72.00;;;;;;5068791;28;20147;-66
2022/10/22 07:47:10;;;;;;;43.60;11.13;;;24.60;71.70;;;;;;5069041;28;20065;-65
2022/10/22 07:49:37;;;;;;;33.97;10.23;;;24.60;72.10;;;;;;5069190;28;20072;-66
2022/10/22 07:52:03;;;;;;;29.85;8.90;;;24.60;71.90;;;;;;5076630;28;20437;-65
2022/10/22 07:54:30;;;;;;;21.95;8.40;;;24.50;72.50;;;;;;5068233;28;20113;-66
2022/10/22 07:56:56;;;;;;;24.20;8.00;;;24.50;72.90;;;;;;5069754;28;20073;-64
2022/10/22 07:59:22;;;;;;;22.80;7.63;;;24.50;73.40;;;;;;5077505;28;20114;-66
2022/10/22 08:01:49;;;;;;;26.92;7.10;;;24.50;73.80;;;;;;5067799;28;20085;-65
2022/10/22 08:04:15;;;;;;;32.33;7.05;;;24.40;73.90;;;;;;5068466;28;20103;-64
2022/10/22 08:06:41;;;;;;;19.42;6.20;;;24.40;74.10;;;;;;5066373;28;20077;-64
2022/10/22 08:09:08;;;;;;;24.10;6.25;;;24.30;73.60;;;;;;5077494;28;20076;-66
2022/10/22 08:11:34;;;;;;;30.27;6.38;;;24.30;74.10;;;;;;5068512;28;20490;-64
2022/10/22 08:14:01;;;;;;;17.60;5.95;;;24.30;73.50;;;;;;5070003;28;20077;-65
2022/10/22 08:16:27;;;;;;;23.58;6.40;;;24.30;74.10;;;;;;5067967;28;20101;-65
2022/10/22 08:18:54;;;;;;;22.65;6.28;;;24.30;74.10;;;;;;5067714;28;20073;-64
2022/10/22 08:21:20;;;;;;;20.45;6.18;;;24.30;74.90;;;;;;5070602;28;20081;-66
2022/10/22 08:23:47;;;;;;;28.05;6.50;;;24.10;74.10;;;;;;5072853;28;20091;-66
2022/10/22 08:26:13;;;;;;;24.63;6.38;;;24.20;75.60;;;;;;5072841;28;20077;-64
2022/10/22 08:28:39;;;;;;;22.10;7.05;;;24.20;75.70;;;;;;5082691;28;20123;-65
2022/10/22 08:31:07;;;;;;;20.52;6.35;;;24.20;75.80;;;;;;5076428;28;20064;-66
2022/10/22 08:33:34;;;;;;;24.55;7.50;;;24.20;76.50;;;;;;5072316;28;20092;-65
2022/10/22 08:36:00;;;;;;;22.38;8.07;;;24.20;75.80;;;;;;5070817;28;20117;-63
2022/10/22 08:38:26;;;;;;;29.23;10.70;;;24.20;76.30;;;;;;5070525;28;20084;-64
2022/10/22 08:41:02;;;;;;;25.20;8.95;;;24.20;76.30;;;;;;5070371;28;20422;-64
2022/10/22 08:43:41;;;;;;;23.98;7.75;;;24.10;77.20;;;;;;5070865;28;20134;-64
2022/10/22 08:46:29;;;;;;;19.45;6.90;;;24.10;77.00;;;;;;5070751;28;20262;-63
2022/10/22 08:49:01;;;;;;;23.65;6.72;;;24.10;78.10;;;;;;5076119;28;20096;-65
2022/10/22 08:51:34;;;;;;;27.25;6.65;;;24.00;78.80;;;;;;5071050;28;20108;-64
2022/10/22 08:54:38;;;;;;;18.50;6.00;;;24.00;79.90;;;;;;5070047;28;20438;-65
2022/10/22 08:57:38;;;;;;;20.02;6.53;;;24.00;81.20;;;;;;5071084;28;20186;-66
2022/10/22 09:00:12;;;;;;;19.77;5.88;;;23.90;81.70;;;;;;5070595;28;21573;-64
2022/10/22 09:03:03;;;;;;;17.45;5.18;;;23.90;82.60;;;;;;5071233;28;20084;-65
2022/10/22 09:06:00;;;;;;;17.10;5.10;;;23.90;83.00;;;;;;5067171;28;20081;-68
2022/10/22 09:08:27;;;;;;;23.13;4.80;;;23.90;83.60;;;;;;5069438;28;20069;-65
2022/10/22 09:11:05;;;;;;;15.07;4.55;;;23.80;83.90;;;;;;5070052;28;20069;-65
2022/10/22 09:13:32;;;;;;;18.50;4.88;;;23.80;84.50;;;;;;5071081;28;20065;-65
2022/10/22 09:16:28;;;;;;;19.33;5.72;;;23.90;84.50;;;;;;5069619;28;20103;-68
2022/10/22 09:19:11;;;;;;;24.70;7.47;;;23.90;84.60;;;;;;5070245;28;20680;-65
2022/10/22 09:22:17;;;;;;;25.23;8.02;;;23.80;86.00;;;;;;5070064;28;20068;-65
2022/10/22 09:24:52;;;;;;;18.13;8.50;;;23.80;87.40;;;;;;5076129;28;20068;-66
2022/10/22 09:27:27;;;;;;;19.98;8.70;;;23.70;88.70;;;;;;5070330;28;20080;-66
2022/10/22 09:29:53;;;;;;;23.70;8.13;;;23.80;89.10;;;;;;5069374;28;20072;-65
2022/10/22 09:32:20;;;;;;;20.63;8.00;;;23.80;88.70;;;;;;5070107;28;20069;-66
2022/10/22 09:34:48;;;;;;;21.23;8.47;;;23.80;88.80;;;;;;5050473;28;549507;-64
2022/10/22 09:37:17;;;;;;;26.73;8.70;;;23.80;89.20;;;;;;5070296;28;20100;-67
2022/10/22 09:39:51;;;;;;;19.35;7.97;;;23.80;90.00;;;;;;5072854;28;20118;-64
2022/10/22 09:42:19;;;;;;;19.85;7.20;;;23.80;90.10;;;;;;5071439;28;20153;-65
2022/10/22 09:44:53;;;;;;;15.20;6.45;;;23.80;90.60;;;;;;5071163;28;20080;-66
2022/10/22 09:47:39;;;;;;;19.17;7.38;;;23.70;90.60;;;;;;5069922;28;20699;-66
2022/10/22 09:50:25;;;;;;;12.60;6.32;;;23.70;90.90;;;;;;5073039;28;20593;-64
2022/10/22 09:53:13;;;;;;;22.83;7.22;;;23.60;91.10;;;;;;5068673;28;20115;-64
2022/10/22 09:55:42;;;;;;;15.60;7.07;;;23.60;91.30;;;;;;5070334;28;20084;-65
2022/10/22 09:58:12;;;;;;;18.52;7.55;;;23.60;91.60;;;;;;5078893;28;20275;-65
2022/10/22 10:00:45;;;;;;;19.90;7.18;;;23.50;91.70;;;;;;5071484;28;20181;-65
2022/10/22 10:03:22;;;;;;;14.98;7.05;;;23.60;91.90;;;;;;5071791;28;20085;-66
2022/10/22 10:05:52;;;;;;;14.93;7.18;;;23.50;92.00;;;;;;5069737;28;20064;-66
2022/10/22 10:08:19;;;;;;;16.65;6.65;;;23.50;92.30;;;;;;5069570;28;20077;-65
2022/10/22 10:11:16;;;;;;;14.98;7.30;;;23.50;92.40;;;;;;5070371;28;20069;-67
2022/10/22 10:14:12;;;;;;;14.57;6.70;;;23.40;92.70;;;;;;5070589;28;20151;-66
2022/10/22 10:16:59;;;;;;;14.90;6.60;;;23.30;93.00;;;;;;5068757;28;20108;-66
2022/10/22 10:19:39;;;;;;;16.92;6.82;;;23.30;93.00;;;;;;5070052;28;20071;-66
2022/10/22 10:22:23;;;;;;;21.40;6.78;;;23.40;93.30;;;;;;5069751;28;20533;-66
2022/10/22 10:25:13;;;;;;;27.23;7.35;;;23.30;93.40;;;;;;5070276;28;20099;-66
2022/10/22 10:27:55;;;;;;;29.92;6.55;;;23.30;93.70;;;;;;5069372;28;20069;-65
2022/10/22 10:30:25;;;;;;;21.45;6.85;;;23.30;94.00;;;;;;5070261;28;20460;-65
2022/10/22 10:33:10;;;;;;;19.52;6.95;;;23.30;94.30;;;;;;5070019;28;20065;-66
2022/10/22 10:36:03;;;;;;;20.17;7.40;;;23.20;94.50;;;;;;5070059;28;20750;-66
2022/10/22 10:38:55;;;;;;;22.08;7.53;;;23.20;94.70;;;;;;5068798;28;20087;-65
2022/10/22 10:41:37;;;;;;;20.60;7.93;;;23.10;95.00;;;;;;5068430;28;20429;-65
2022/10/22 10:44:39;;;;;;;20.13;7.45;;;23.20;95.30;;;;;;5069594;28;20096;-64
2022/10/22 10:47:51;;;;;;;23.80;8.75;;;23.10;95.40;;;;;;5070273;28;20152;-65
2022/10/22 10:50:59;;;;;;;28.27;8.35;;;23.00;96.00;;;;;;5059748;28;20480;-64
2022/10/22 10:53:59;;;;;;;23.58;8.73;;;23.00;96.30;;;;;;5067999;28;20077;-65
2022/10/22 10:56:31;;;;;;;25.05;9.13;;;22.90;96.40;;;;;;5073929;28;20073;-65
2022/10/22 10:59:14;;;;;;;19.45;8.20;;;22.80;96.80;;;;;;5074465;28;20084;-64
2022/10/22 11:01:44;;;;;;;25.08;8.18;;;22.90;96.90;;;;;;5069486;28;20552;-66
2022/10/22 11:04:55;;;;;;;21.92;8.93;;;22.90;97.00;;;;;;5069784;28;20101;-65
2022/10/22 11:07:32;;;;;;;22.17;9.32;;;22.80;97.20;;;;;;5070789;28;20069;-64
2022/10/22 11:10:10;;;;;;;24.25;8.55;;;22.90;97.30;;;;;;5069175;28;20077;-65
2022/10/22 11:12:43;;;;;;;22.13;9.43;;;22.90;97.40;;;;;;5068924;28;20547;-65
2022/10/22 11:15:33;;;;;;;27.67;9.80;;;22.80;97.50;;;;;;5073728;28;20092;-66
2022/10/22 11:18:19;;;;;;;28.77;9.13;;;22.80;97.70;;;;;;5066783;28;20084;-66
2022/10/22 11:21:10;;;;;;;28.73;9.57;;;22.70;98.00;;;;;;5068786;28;20072;-66
2022/10/22 11:23:45;;;;;;;22.80;8.63;;;22.70;98.50;;;;;;5068542;28;20089;-65
2022/10/22 11:26:43;;;;;;;28.00;9.25;;;22.70;98.70;;;;;;5071154;28;20579;-66
2022/10/22 11:29:21;;;;;;;25.67;9.32;;;22.70;99.10;;;;;;5068362;28;20085;-66
2022/10/22 11:31:50;;;;;;;23.13;9.30;;;22.70;99.40;;;;;;5069617;28;20138;-64
2022/10/22 11:34:35;;;;;;;35.25;9.00;;;22.60;99.60;;;;;;5067908;28;20077;-64
2022/10/22 11:37:03;;;;;;;25.65;9.43;;;22.70;99.70;;;;;;5067191;28;20081;-66
2022/10/22 11:39:44;;;;;;;24.77;9.15;;;22.70;99.90;;;;;;5068301;28;20112;-64
2022/10/22 11:42:47;;;;;;;30.52;10.27;;;22.60;99.90;;;;;;5068148;28;20077;-66
2022/10/22 11:45:13;;;;;;;26.98;9.38;;;22.60;99.90;;;;;;5065360;28;20562;-65
2022/10/22 11:47:53;;;;;;;26.70;9.68;;;22.60;99.90;;;;;;5069540;28;20080;-64
2022/10/22 11:50:24;;;;;;;26.42;8.70;;;22.60;99.90;;;;;;5069151;28;20079;-65
2022/10/22 11:53:31;;;;;;;39.05;9.85;;;22.50;99.90;;;;;;5074677;28;20548;-65
2022/10/22 11:56:06;;;;;;;26.52;8.98;;;22.50;99.90;;;;;;5070323;28;20085;-65
2022/10/22 11:58:38;;;;;;;23.83;9.00;;;22.40;99.90;;;;;;5072959;28;20141;-66
2022/10/22 12:01:07;;;;;;;28.35;9.15;;;22.40;99.90;;;;;;5068434;28;20093;-66
2022/10/22 12:03:38;;;;;;;23.67;9.73;;;22.40;99.90;;;;;;5070809;28;20134;-66
2022/10/22 12:06:10;;;;;;;27.30;9.95;;;22.40;99.90;;;;;;5067308;28;20107;-65
2022/10/22 12:08:51;;;;;;;26.75;9.82;;;22.30;99.90;;;;;;5065401;28;20110;-66
2022/10/22 12:11:44;;;;;;;21.58;8.98;;;22.30;99.90;;;;;;5066800;28;20108;-64
2022/10/22 12:14:39;;;;;;;22.92;9.07;;;22.30;99.90;;;;;;5067738;28;20609;-67
2022/10/22 12:17:14;;;;;;;28.35;9.48;;;22.30;99.90;;;;;;5067889;28;20160;-66
2022/10/22 12:19:43;;;;;;;27.67;9.35;;;22.30;99.90;;;;;;5067591;28;20085;-66
2022/10/22 12:22:18;;;;;;;20.92;9.05;;;22.20;99.90;;;;;;5070201;28;20077;-66
2022/10/22 12:24:51;;;;;;;23.40;8.73;;;22.20;99.90;;;;;;5068419;28;20095;-65
2022/10/22 12:27:21;;;;;;;20.23;9.32;;;22.20;99.90;;;;;;5073965;28;20073;-66
2022/10/22 12:29:48;;;;;;;25.10;9.60;;;22.20;99.90;;;;;;5068194;28;20403;-66
2022/10/22 12:32:15;;;;;;;28.48;9.60;;;22.10;99.90;;;;;;5069012;28;20073;-66
2022/10/22 12:34:47;;;;;;;28.67;9.23;;;22.10;99.90;;;;;;5074785;28;20077;-68
2022/10/22 12:37:15;;;;;;;27.67;9.65;;;22.10;99.90;;;;;;5066380;28;20077;-65
2022/10/22 12:39:41;;;;;;;25.60;9.05;;;22.00;99.90;;;;;;5068201;28;20528;-66
2022/10/22 12:42:13;;;;;;;31.83;9.25;;;22.00;99.90;;;;;;5068252;28;20077;-65
2022/10/22 12:44:40;;;;;;;27.23;8.20;;;21.90;99.90;;;;;;5069263;28;20687;-67
2022/10/22 12:47:13;;;;;;;29.98;8.98;;;21.90;99.90;;;;;;5068253;28;20182;-66
2022/10/22 12:49:42;;;;;;;36.97;9.82;;;22.00;99.90;;;;;;5068946;28;20514;-65
2022/10/22 12:52:18;;;;;;;31.10;9.85;;;21.90;99.90;;;;;;5068178;28;20530;-66
2022/10/22 12:54:47;;;;;;;27.98;9.07;;;21.90;99.90;;;;;;5073881;28;20117;-66
2022/10/22 12:57:16;;;;;;;25.17;9.75;;;21.90;99.90;;;;;;5074604;28;20138;-66
2022/10/22 12:59:48;;;;;;;35.70;10.38;;;21.90;99.90;;;;;;5066649;28;20081;-64
2022/10/22 13:02:21;;;;;;;43.45;9.45;;;21.90;99.90;;;;;;5069445;28;20195;-66
2022/10/22 13:05:20;;;;;;;45.22;10.85;;;21.80;99.90;;;;;;5067685;28;20227;-66